createdAt,value
2018-11-27T00:00:18.369Z,13.40
2018-11-27T00:02:48.462Z,13.70
2018-11-27T00:05:19.025Z,13.13
2018-11-27T00:07:49.818Z,12.80
2018-11-27T00:10:20.530Z,13.70
2018-11-27T00:12:50.788Z,14.17
2018-11-27T00:15:22.032Z,13.83
2018-11-27T00:17:52.667Z,13.70
2018-11-27T00:20:23.276Z,13.20
2018-11-27T00:22:53.702Z,13.80
2018-11-27T00:25:27.000Z,13.70
2018-11-27T00:28:01.742Z,13.53
2018-11-27T00:30:34.029Z,13.93
2018-11-27T00:33:05.327Z,14.47
2018-11-27T00:35:36.121Z,13.80
2018-11-27T00:38:09.099Z,14.03
2018-11-27T00:40:40.020Z,14.70
2018-11-27T00:43:10.180Z,13.07
2018-11-27T00:45:41.081Z,13.90
2018-11-27T00:48:12.123Z,14.50
2018-11-27T00:50:42.980Z,13.83
2018-11-27T00:53:12.966Z,14.43
2018-11-27T00:55:44.171Z,13.23
2018-11-27T00:58:16.588Z,13.97
2018-11-27T01:00:48.080Z,13.95
2018-11-27T01:03:18.991Z,14.20
2018-11-27T01:05:49.126Z,12.60
2018-11-27T01:08:19.311Z,13.35
2018-11-27T01:10:51.215Z,13.80
2018-11-27T01:13:21.872Z,13.15
2018-11-27T01:15:52.362Z,13.67
2018-11-27T01:18:23.810Z,13.70
2018-11-27T01:20:54.331Z,14.30
2018-11-27T01:23:31.034Z,12.60
2018-11-27T01:26:01.234Z,13.63
2018-11-27T01:28:32.182Z,13.23
2018-11-27T01:31:03.226Z,13.85
2018-11-27T01:33:33.241Z,12.33
2018-11-27T01:36:04.320Z,13.30
2018-11-27T01:38:34.357Z,14.68
2018-11-27T01:41:05.283Z,13.77
2018-11-27T01:43:35.855Z,15.37
2018-11-27T01:46:06.528Z,13.13
2018-11-27T01:48:39.889Z,14.37
2018-11-27T01:51:10.447Z,13.50
2018-11-27T01:53:41.400Z,13.80
2018-11-27T01:56:11.571Z,14.45
2018-11-27T02:01:59.126Z,13.35
2018-11-27T02:04:31.364Z,13.53
2018-11-27T02:07:02.585Z,13.03
2018-11-27T02:09:36.367Z,14.10
2018-11-27T02:12:07.141Z,13.27
2018-11-27T02:14:37.519Z,13.00
2018-11-27T02:17:08.652Z,15.03
2018-11-27T02:19:39.493Z,13.95
2018-11-27T02:22:10.307Z,15.60
2018-11-27T02:24:40.526Z,15.23
2018-11-27T02:27:12.165Z,13.78
2018-11-27T02:29:42.564Z,15.00
2018-11-27T02:32:13.245Z,13.47
2018-11-27T02:34:43.552Z,14.07
2018-11-27T02:37:14.327Z,13.50
2018-11-27T02:39:44.667Z,14.40
2018-11-27T02:42:19.503Z,12.50
2018-11-27T02:44:51.613Z,14.10
2018-11-27T02:47:22.608Z,13.93
2018-11-27T02:49:52.601Z,13.40
2018-11-27T02:52:27.500Z,13.27
2018-11-27T02:54:57.594Z,14.10
2018-11-27T02:57:27.680Z,14.10
2018-11-27T02:59:58.854Z,13.50
2018-11-27T03:02:29.574Z,14.95
2018-11-27T03:04:59.596Z,14.40
2018-11-27T03:07:30.804Z,15.03
2018-11-27T03:10:01.798Z,13.67
2018-11-27T03:12:31.797Z,13.00
2018-11-27T03:15:07.125Z,14.40
2018-11-27T03:17:39.656Z,13.73
2018-11-27T03:20:11.400Z,14.80
2018-11-27T03:22:41.483Z,13.90
2018-11-27T03:25:19.611Z,13.97
2018-11-27T03:27:52.806Z,15.48
2018-11-27T03:30:26.814Z,13.77
2018-11-27T03:33:08.898Z,15.47
2018-11-27T03:35:38.912Z,14.93
2018-11-27T03:38:15.673Z,16.43
2018-11-27T03:40:46.679Z,15.13
2018-11-27T03:43:16.668Z,16.40
2018-11-27T03:45:47.641Z,15.70
2018-11-27T03:48:18.261Z,14.77
2018-11-27T03:50:48.903Z,15.37
2018-11-27T03:53:19.363Z,16.82
2018-11-27T03:55:52.698Z,15.87
2018-11-27T03:58:22.851Z,14.67
2018-11-27T04:00:54.032Z,15.90
2018-11-27T04:03:26.875Z,16.60
2018-11-27T04:05:57.892Z,15.90
2018-11-27T04:08:29.004Z,17.50
2018-11-27T04:10:59.907Z,16.00
2018-11-27T04:13:29.991Z,16.20
2018-11-27T04:16:00.103Z,17.07
2018-11-27T04:18:30.643Z,15.80
2018-11-27T04:21:02.108Z,16.27
2018-11-27T04:23:32.112Z,15.13
2018-11-27T04:26:03.074Z,18.10
2018-11-27T04:28:34.051Z,17.10
2018-11-27T04:31:05.226Z,16.07
2018-11-27T04:33:35.984Z,17.20
2018-11-27T04:36:06.808Z,18.10
2018-11-27T04:38:37.107Z,18.50
2018-11-27T04:41:07.317Z,17.63
2018-11-27T04:43:38.066Z,17.30
2018-11-27T04:46:15.031Z,19.10
2018-11-27T04:48:46.104Z,18.00
2018-11-27T04:51:16.380Z,18.30
2018-11-27T04:53:47.061Z,20.12
2018-11-27T04:56:20.124Z,18.70
2018-11-27T04:58:50.996Z,17.40
2018-11-27T05:01:21.536Z,18.85
2018-11-27T05:03:52.283Z,19.53
2018-11-27T05:06:22.744Z,19.17
2018-11-27T05:08:53.432Z,19.17
2018-11-27T05:11:23.439Z,18.55
2018-11-27T05:13:54.189Z,19.20
2018-11-27T05:16:28.116Z,19.23
2018-11-27T05:18:58.207Z,18.40
2018-11-27T05:21:29.391Z,19.30
2018-11-27T05:24:06.937Z,19.30
2018-11-27T05:26:37.368Z,19.47
2018-11-27T05:29:10.371Z,17.93
2018-11-27T05:31:41.385Z,18.90
2018-11-27T05:34:12.436Z,20.63
2018-11-27T05:36:48.105Z,23.97
2018-11-27T05:39:19.448Z,22.73
2018-11-27T05:41:50.296Z,20.87
2018-11-27T05:44:21.489Z,19.63
2018-11-27T05:47:00.318Z,18.50
2018-11-27T05:49:31.469Z,17.13
2018-11-27T05:52:02.448Z,18.23
2018-11-27T05:54:33.678Z,18.00
2018-11-27T05:57:06.812Z,18.40
2018-11-27T05:59:37.430Z,18.27
2018-11-27T06:02:08.693Z,19.85
2018-11-27T06:04:38.743Z,20.17
2018-11-27T06:07:09.732Z,20.87
2018-11-27T06:09:39.731Z,20.00
2018-11-27T06:12:10.515Z,19.87
2018-11-27T06:14:40.640Z,19.10
2018-11-27T06:17:11.812Z,20.83
2018-11-27T06:19:42.278Z,21.35
2018-11-27T06:22:12.588Z,20.20
2018-11-27T06:24:43.516Z,20.85
2018-11-27T06:27:14.368Z,22.47
2018-11-27T06:29:44.587Z,21.25
2018-11-27T06:32:21.497Z,19.70
2018-11-27T06:34:52.731Z,22.20
2018-11-27T06:37:31.603Z,21.60
2018-11-27T06:40:02.631Z,21.55
2018-11-27T06:42:33.663Z,23.07
2018-11-27T06:45:04.985Z,23.53
2018-11-27T06:47:35.022Z,23.23
2018-11-27T06:50:06.602Z,22.63
2018-11-27T06:52:36.667Z,22.97
2018-11-27T06:55:09.548Z,23.67
2018-11-27T06:57:41.828Z,23.57
2018-11-27T07:00:16.740Z,25.95
2018-11-27T07:02:48.859Z,23.10
2018-11-27T07:05:20.170Z,24.37
2018-11-27T07:07:52.838Z,24.87
2018-11-27T07:10:28.735Z,24.00
2018-11-27T07:13:06.639Z,24.73
2018-11-27T07:15:36.823Z,29.70
2018-11-27T07:18:08.748Z,35.37
2018-11-27T07:20:40.837Z,48.37
2018-11-27T07:23:14.700Z,48.57
2018-11-27T07:25:44.889Z,42.07
2018-11-27T07:28:15.979Z,30.07
2018-11-27T07:30:46.773Z,25.50
2018-11-27T07:33:16.881Z,27.90
2018-11-27T07:35:47.983Z,33.13
2018-11-27T07:38:18.856Z,33.50
2018-11-27T07:40:49.626Z,28.70
2018-11-27T07:43:20.109Z,27.75
2018-11-27T07:45:55.235Z,27.20
2018-11-27T07:48:27.755Z,26.57
2018-11-27T07:50:57.930Z,25.10
2018-11-27T07:53:28.854Z,26.00
2018-11-27T07:55:59.957Z,26.33
2018-11-27T07:58:30.706Z,25.70
2018-11-27T08:01:02.049Z,25.62
2018-11-27T08:03:32.937Z,27.77
2018-11-27T08:06:03.155Z,30.63
2018-11-27T08:08:34.008Z,30.37
2018-11-27T08:11:04.165Z,31.77
2018-11-27T08:13:38.886Z,28.87
2018-11-27T08:16:11.066Z,29.17
2018-11-27T08:18:43.047Z,29.20
2018-11-27T08:21:15.082Z,27.53
2018-11-27T08:23:45.160Z,26.50
2018-11-27T08:26:16.874Z,29.17
2018-11-27T08:28:48.077Z,27.23
2018-11-27T08:31:18.728Z,30.10
2018-11-27T08:33:49.587Z,29.42
2018-11-27T08:36:20.208Z,28.13
2018-11-27T08:38:50.224Z,27.60
2018-11-27T08:41:21.617Z,27.10
2018-11-27T08:43:52.290Z,27.97
2018-11-27T08:46:29.204Z,25.80
2018-11-27T08:49:00.337Z,26.20
2018-11-27T08:51:30.484Z,27.10
2018-11-27T08:54:01.221Z,27.53
2018-11-27T08:56:35.073Z,27.70
2018-11-27T08:59:06.985Z,26.07
2018-11-27T09:01:40.162Z,28.10
2018-11-27T09:04:11.244Z,26.57
2018-11-27T09:06:41.325Z,26.60
2018-11-27T09:09:11.653Z,27.13
2018-11-27T09:11:42.341Z,25.65
2018-11-27T09:14:14.070Z,28.20
2018-11-27T09:16:45.325Z,27.57
2018-11-27T09:19:16.778Z,28.38
2018-11-27T09:21:48.415Z,28.30
2018-11-27T09:24:19.252Z,27.73
2018-11-27T09:26:49.498Z,28.80
2018-11-27T09:29:20.249Z,27.13
2018-11-27T09:31:51.260Z,28.38
2018-11-27T09:34:21.589Z,28.13
2018-11-27T09:36:52.320Z,26.97
2018-11-27T09:39:26.172Z,27.37
2018-11-27T09:41:56.477Z,28.33
2018-11-27T09:44:27.531Z,29.07
2018-11-27T09:47:02.543Z,27.20
2018-11-27T09:49:33.475Z,27.67
2018-11-27T09:52:05.717Z,29.00
2018-11-27T09:54:37.530Z,27.07
2018-11-27T09:57:07.723Z,29.07
2018-11-27T09:59:38.577Z,28.00
2018-11-27T10:02:15.316Z,27.63
2018-11-27T10:04:46.407Z,26.63
2018-11-27T10:07:16.875Z,28.32
2018-11-27T10:09:47.620Z,28.87
2018-11-27T10:12:17.646Z,25.97
2018-11-27T10:14:48.765Z,27.83
2018-11-27T10:17:19.488Z,30.65
2018-11-27T10:19:49.564Z,29.10
2018-11-27T10:22:20.627Z,27.53
2018-11-27T10:24:54.567Z,27.80
2018-11-27T10:27:24.628Z,27.00
2018-11-27T10:29:55.567Z,26.70
2018-11-27T10:32:26.668Z,25.97
2018-11-27T10:34:56.644Z,27.03
2018-11-27T10:37:26.748Z,27.60
2018-11-27T10:39:57.754Z,26.80
2018-11-27T10:42:30.243Z,28.70
2018-11-27T10:44:58.766Z,25.80
2018-11-27T10:47:29.840Z,24.10
2018-11-27T10:50:01.391Z,26.40
2018-11-27T10:52:34.577Z,24.90
2018-11-27T10:55:08.058Z,24.70
2018-11-27T10:57:40.960Z,24.87
2018-11-27T11:00:25.244Z,26.00
2018-11-27T11:04:03.735Z,24.27
2018-11-27T11:06:34.891Z,23.50
2018-11-27T11:09:09.954Z,24.77
2018-11-27T11:11:45.528Z,25.93
2018-11-27T11:14:15.810Z,25.30
2018-11-27T11:16:46.793Z,25.47
2018-11-27T11:19:18.485Z,23.67
2018-11-27T11:21:47.868Z,23.83
2018-11-27T11:24:23.815Z,22.80
2018-11-27T11:26:57.655Z,21.90
2018-11-27T11:29:27.939Z,22.03
2018-11-27T11:31:58.954Z,23.50
2018-11-27T11:34:30.027Z,22.70
2018-11-27T11:37:00.097Z,22.43
2018-11-27T11:39:31.504Z,23.23
2018-11-27T11:42:04.100Z,25.63
2018-11-27T11:44:34.999Z,24.80
2018-11-27T11:47:06.650Z,23.27
2018-11-27T11:49:39.014Z,25.82
2018-11-27T11:52:12.848Z,23.50
2018-11-27T11:54:43.739Z,25.10
2018-11-27T11:57:14.166Z,24.00
2018-11-27T11:59:50.929Z,23.27
2018-11-27T12:02:23.255Z,22.37
2018-11-27T12:04:55.094Z,24.67
2018-11-27T12:07:26.180Z,24.50
2018-11-27T12:09:58.016Z,23.43
2018-11-27T12:12:28.172Z,24.00
2018-11-27T12:14:59.197Z,24.90
2018-11-27T12:17:33.034Z,24.50
2018-11-27T12:20:03.306Z,23.43
2018-11-27T12:22:35.671Z,25.30
2018-11-27T12:25:12.032Z,23.53
2018-11-27T12:27:44.119Z,24.80
2018-11-27T12:30:18.123Z,23.80
2018-11-27T12:32:48.379Z,23.83
2018-11-27T12:35:23.593Z,24.23
2018-11-27T12:37:56.035Z,22.93
2018-11-27T12:40:28.880Z,24.40
2018-11-27T12:43:01.367Z,24.23
2018-11-27T12:45:33.784Z,23.97
2018-11-27T12:48:04.652Z,23.93
2018-11-27T12:50:46.448Z,23.33
2018-11-27T12:53:18.166Z,23.32
2018-11-27T12:55:50.375Z,24.13
2018-11-27T12:58:20.431Z,24.53
2018-11-27T13:00:52.493Z,23.33
2018-11-27T13:03:23.531Z,25.37
2018-11-27T13:06:01.552Z,23.73
2018-11-27T13:08:37.385Z,21.83
2018-11-27T13:11:11.455Z,22.73
2018-11-27T13:13:38.359Z,23.27
2018-11-27T13:16:09.463Z,22.53
2018-11-27T13:18:42.623Z,23.80
2018-11-27T13:21:13.623Z,20.87
2018-11-27T13:23:50.359Z,21.47
2018-11-27T13:26:20.543Z,24.17
2018-11-27T13:28:52.682Z,23.33
2018-11-27T13:31:28.653Z,24.32
2018-11-27T13:34:11.655Z,22.70
2018-11-27T13:36:41.940Z,22.97
2018-11-27T13:39:24.016Z,23.20
2018-11-27T13:41:54.132Z,22.40
2018-11-27T13:44:26.772Z,24.77
2018-11-27T13:46:58.599Z,23.00
2018-11-27T13:49:29.503Z,22.67
2018-11-27T13:52:01.642Z,23.63
2018-11-27T13:54:33.390Z,23.77
2018-11-27T13:57:06.196Z,26.07
2018-11-27T13:59:36.704Z,24.73
2018-11-27T14:02:12.491Z,25.10
2018-11-27T14:04:43.743Z,24.10
2018-11-27T14:07:15.893Z,24.73
2018-11-27T14:09:46.876Z,24.73
2018-11-27T14:12:17.313Z,25.60
2018-11-27T14:14:47.731Z,25.77
2018-11-27T14:17:17.936Z,24.53
2018-11-27T14:19:48.677Z,23.37
2018-11-27T14:22:25.114Z,24.27
2018-11-27T14:24:51.698Z,22.90
2018-11-27T14:27:23.773Z,24.80
2018-11-27T14:29:55.837Z,22.83
2018-11-27T14:32:30.753Z,24.83
2018-11-27T14:35:01.827Z,23.87
2018-11-27T14:37:31.935Z,22.93
2018-11-27T14:40:02.952Z,24.27
2018-11-27T14:42:34.137Z,24.67
2018-11-27T14:45:08.909Z,24.83
2018-11-27T14:47:39.776Z,25.77
2018-11-27T14:50:12.625Z,25.03
2018-11-27T14:52:43.889Z,23.87
2018-11-27T14:55:26.875Z,26.57
2018-11-27T14:57:56.957Z,24.60
2018-11-27T15:00:28.257Z,26.00
2018-11-27T15:03:01.575Z,24.80
2018-11-27T15:05:33.191Z,25.63
2018-11-27T15:08:10.486Z,25.63
2018-11-27T15:10:41.935Z,26.03
2018-11-27T15:13:13.660Z,25.60
2018-11-27T15:15:46.000Z,26.47
2018-11-27T15:18:17.136Z,25.30
2018-11-27T15:20:50.832Z,24.70
2018-11-27T15:23:20.925Z,27.30
2018-11-27T15:25:51.965Z,26.67
2018-11-27T15:28:24.143Z,26.48
2018-11-27T15:30:56.270Z,26.07
2018-11-27T15:33:26.868Z,26.40
2018-11-27T15:35:57.021Z,25.05
2018-11-27T15:38:27.061Z,27.50
2018-11-27T15:40:57.075Z,28.50
2018-11-27T15:43:32.963Z,28.93
2018-11-27T15:46:03.069Z,28.30
2018-11-27T15:48:34.319Z,29.77
2018-11-27T15:51:05.396Z,28.90
2018-11-27T15:53:44.028Z,28.10
2018-11-27T15:56:14.322Z,25.80
2018-11-27T15:58:48.093Z,27.10
2018-11-27T16:01:18.139Z,26.82
2018-11-27T16:03:49.151Z,26.53
2018-11-27T16:06:19.661Z,25.83
2018-11-27T16:08:50.201Z,27.00
2018-11-27T16:11:20.750Z,32.15
2018-11-27T16:13:55.351Z,28.40
2018-11-27T16:16:23.889Z,25.03
2018-11-27T16:18:55.284Z,24.43
2018-11-27T16:21:26.301Z,26.68
2018-11-27T16:23:56.315Z,28.67
2018-11-27T16:26:27.368Z,24.07
2018-11-27T16:29:01.071Z,26.47
2018-11-27T16:31:31.498Z,26.00
2018-11-27T16:34:02.288Z,28.27
2018-11-27T16:36:33.378Z,26.93
2018-11-27T16:39:10.764Z,26.30
2018-11-27T16:41:43.409Z,28.60
2018-11-27T16:44:14.324Z,24.80
2018-11-27T16:46:45.141Z,25.93
2018-11-27T16:49:15.488Z,27.43
2018-11-27T16:51:46.354Z,25.53
2018-11-27T16:54:17.301Z,26.20
2018-11-27T16:56:47.483Z,26.43
2018-11-27T16:59:17.520Z,25.87
2018-11-27T17:01:55.433Z,27.00
2018-11-27T17:04:25.546Z,26.47
2018-11-27T17:06:56.415Z,24.70
2018-11-27T17:09:26.683Z,26.20
2018-11-27T17:11:57.504Z,25.20
2018-11-27T17:14:27.624Z,27.60
2018-11-27T17:16:58.553Z,25.97
2018-11-27T17:19:31.608Z,26.40
2018-11-27T17:22:02.485Z,25.50
2018-11-27T17:24:32.579Z,26.13
2018-11-27T17:27:03.588Z,25.47
2018-11-27T17:29:34.557Z,23.35
2018-11-27T17:32:07.795Z,25.47
2018-11-27T17:34:39.617Z,26.20
2018-11-27T17:37:11.635Z,26.67
2018-11-27T17:39:42.435Z,24.93
2018-11-27T17:42:12.549Z,26.50
2018-11-27T17:44:43.641Z,25.50
2018-11-27T17:47:17.854Z,26.27
2018-11-27T17:49:50.697Z,32.17
2018-11-27T17:52:20.735Z,42.70
2018-11-27T17:54:52.684Z,35.80
2018-11-27T17:57:23.751Z,25.60
2018-11-27T17:59:53.772Z,27.42
2018-11-27T18:02:27.733Z,26.80
2018-11-27T18:05:01.572Z,29.43
2018-11-27T18:07:32.708Z,33.80
2018-11-27T18:10:02.711Z,37.93
2018-11-27T18:12:33.953Z,29.47
2018-11-27T18:15:05.137Z,24.70
2018-11-27T18:17:37.893Z,25.00
2018-11-27T18:20:10.145Z,23.37
2018-11-27T18:22:41.885Z,24.87
2018-11-27T18:25:14.815Z,25.83
2018-11-27T18:27:47.207Z,24.50
2018-11-27T18:30:18.863Z,26.07
2018-11-27T18:32:55.750Z,24.67
2018-11-27T18:35:26.833Z,25.55
2018-11-27T18:37:56.875Z,28.10
2018-11-27T18:40:27.789Z,23.60
2018-11-27T18:42:57.970Z,24.23
2018-11-27T18:45:31.248Z,27.70
2018-11-27T18:48:02.011Z,26.13
2018-11-27T18:50:39.968Z,26.57
2018-11-27T18:53:11.909Z,26.35
2018-11-27T18:55:43.042Z,26.10
2018-11-27T18:58:14.030Z,25.17
2018-11-27T19:00:44.234Z,27.42
2018-11-27T19:03:15.304Z,25.30
2018-11-27T19:05:46.411Z,25.47
2018-11-27T19:08:17.659Z,25.33
2018-11-27T19:10:56.652Z,25.03
2018-11-27T19:13:27.954Z,27.63
2018-11-27T19:15:58.133Z,28.60
2018-11-27T19:18:29.147Z,28.27
2018-11-27T19:21:00.973Z,25.60
2018-11-27T19:23:31.925Z,28.87
2018-11-27T19:26:04.003Z,29.27
2018-11-27T19:28:35.144Z,28.17
2018-11-27T19:31:06.316Z,26.67
2018-11-27T19:33:37.244Z,26.40
2018-11-27T19:36:08.186Z,26.90
2018-11-27T19:38:41.356Z,28.20
2018-11-27T19:41:12.078Z,29.60
2018-11-27T19:43:42.199Z,27.47
2018-11-27T19:46:14.208Z,25.20
2018-11-27T19:48:46.373Z,25.90
2018-11-27T19:51:17.512Z,27.17
2018-11-27T19:53:47.826Z,27.03
2018-11-27T19:56:17.984Z,25.63
2018-11-27T19:58:49.179Z,27.30
2018-11-27T20:01:19.834Z,26.68
2018-11-27T20:03:50.214Z,28.43
2018-11-27T20:06:20.901Z,28.10
2018-11-27T20:08:51.278Z,25.43
2018-11-27T20:11:21.366Z,26.43
2018-11-27T20:13:52.922Z,28.33
2018-11-27T20:16:29.258Z,28.03
2018-11-27T20:19:00.316Z,26.07
2018-11-27T20:21:30.443Z,26.77
2018-11-27T20:24:01.421Z,28.30
2018-11-27T20:26:31.430Z,26.07
2018-11-27T20:29:03.430Z,27.77
2018-11-27T20:31:36.410Z,27.70
2018-11-27T20:34:13.337Z,29.40
2018-11-27T20:36:44.169Z,27.23
2018-11-27T20:39:14.517Z,26.67
2018-11-27T20:41:45.060Z,28.33
2018-11-27T20:44:17.488Z,28.42
2018-11-27T20:46:48.427Z,28.97
2018-11-27T20:49:21.196Z,28.50
2018-11-27T20:51:52.498Z,29.10
2018-11-27T20:54:24.561Z,28.87
2018-11-27T20:56:55.788Z,27.67
2018-11-27T20:59:27.606Z,29.93
2018-11-27T21:02:04.465Z,27.37
2018-11-27T21:04:34.946Z,31.80
2018-11-27T21:07:05.813Z,30.90
2018-11-27T21:09:36.204Z,30.20
2018-11-27T21:12:06.806Z,31.60
2018-11-27T21:14:37.319Z,30.57
2018-11-27T21:17:07.836Z,31.53
2018-11-27T21:19:39.607Z,32.67
2018-11-27T21:22:10.505Z,32.93
2018-11-27T21:24:40.758Z,32.07
2018-11-27T21:27:11.754Z,31.83
2018-11-27T21:29:45.533Z,32.50
2018-11-27T21:32:16.732Z,34.83
2018-11-27T21:34:50.021Z,35.80
2018-11-27T21:37:21.668Z,33.48
2018-11-27T21:39:51.735Z,34.77
2018-11-27T21:42:24.543Z,33.40
2018-11-27T21:44:55.928Z,33.35
2018-11-27T21:47:29.644Z,31.77
2018-11-27T21:49:59.723Z,33.30
2018-11-27T21:52:30.728Z,33.23
2018-11-27T21:55:00.996Z,33.40
2018-11-27T21:57:31.752Z,34.30
2018-11-27T22:00:01.844Z,33.05
2018-11-27T22:02:37.759Z,33.48
2018-11-27T22:05:09.483Z,34.03
2018-11-27T22:07:42.245Z,31.20
2018-11-27T22:10:17.245Z,34.47
2018-11-27T22:12:50.231Z,34.77
2018-11-27T22:15:31.907Z,35.17
2018-11-27T22:18:03.331Z,34.35
2018-11-27T22:20:36.108Z,33.58
2018-11-27T22:23:10.529Z,35.87
2018-11-27T22:25:40.662Z,36.00
2018-11-27T22:28:11.139Z,34.50
2018-11-27T22:30:41.741Z,33.67
2018-11-27T22:33:11.871Z,34.67
2018-11-27T22:35:42.994Z,34.97
2018-11-27T22:38:13.003Z,35.80
2018-11-27T22:40:49.822Z,34.23
2018-11-27T22:43:21.144Z,34.08
2018-11-27T22:45:52.000Z,33.63
2018-11-27T22:48:29.777Z,33.60
2018-11-27T22:51:01.950Z,36.63
2018-11-27T22:53:32.835Z,35.27
2018-11-27T22:56:03.227Z,36.33
2018-11-27T22:58:34.148Z,36.70
2018-11-27T23:01:05.176Z,36.70
2018-11-27T23:03:35.200Z,32.57
2018-11-27T23:06:05.879Z,35.60
2018-11-27T23:08:36.149Z,36.90
2018-11-27T23:11:06.820Z,35.80
2018-11-27T23:13:37.103Z,37.57
2018-11-27T23:16:07.408Z,35.77
2018-11-27T23:18:38.241Z,36.50
2018-11-27T23:21:08.941Z,36.10
2018-11-27T23:23:39.099Z,46.87
2018-11-27T23:26:09.167Z,55.10
2018-11-27T23:28:40.681Z,40.27
2018-11-27T23:31:10.863Z,41.50
2018-11-27T23:33:41.244Z,43.70
2018-11-27T23:36:11.773Z,41.93
2018-11-27T23:38:42.135Z,37.17
2018-11-27T23:41:14.382Z,35.93
2018-11-27T23:43:45.368Z,34.80
2018-11-27T23:46:15.895Z,36.57
2018-11-27T23:48:46.236Z,36.68
2018-11-27T23:51:17.169Z,38.20
2018-11-27T23:53:47.891Z,35.00
2018-11-27T23:56:18.035Z,36.65
2018-11-27T23:58:49.342Z,34.37
